sensor_id;sensor_type;location;lat;lon;timestamp;P1;durP1;ratioP1;P2;durP2;ratioP2
38264;SDS011;24062;47.480;8.768;2022-08-04T00:00:04;11.20;;;2.57;;
38264;SDS011;24062;47.480;8.768;2022-08-04T00:02:40;13.67;;;3.03;;
38264;SDS011;24062;47.480;8.768;2022-08-04T00:05:18;10.63;;;2.60;;
38264;SDS011;24062;47.480;8.768;2022-08-04T00:07:55;12.20;;;3.13;;
38264;SDS011;24062;47.480;8.768;2022-08-04T00:10:29;11.03;;;2.80;;
38264;SDS011;24062;47.480;8.768;2022-08-04T00:12:59;14.07;;;2.63;;
38264;SDS011;24062;47.480;8.768;2022-08-04T00:15:27;11.17;;;2.70;;
38264;SDS011;24062;47.480;8.768;2022-08-04T00:17:59;11.00;;;2.40;;
38264;SDS011;24062;47.480;8.768;2022-08-04T00:20:28;11.67;;;2.60;;
38264;SDS011;24062;47.480;8.768;2022-08-04T00:22:57;11.13;;;2.30;;
38264;SDS011;24062;47.480;8.768;2022-08-04T00:25:26;10.97;;;2.57;;
38264;SDS011;24062;47.480;8.768;2022-08-04T00:27:53;13.80;;;2.77;;
38264;SDS011;24062;47.480;8.768;2022-08-04T00:30:20;12.03;;;2.60;;
38264;SDS011;24062;47.480;8.768;2022-08-04T00:32:48;12.87;;;3.00;;
38264;SDS011;24062;47.480;8.768;2022-08-04T00:35:17;12.23;;;2.53;;
38264;SDS011;24062;47.480;8.768;2022-08-04T00:37:44;16.30;;;2.20;;
38264;SDS011;24062;47.480;8.768;2022-08-04T00:40:21;11.83;;;2.70;;
38264;SDS011;24062;47.480;8.768;2022-08-04T00:42:53;12.10;;;2.60;;
38264;SDS011;24062;47.480;8.768;2022-08-04T00:48:29;11.97;;;2.93;;
38264;SDS011;24062;47.480;8.768;2022-08-04T00:51:13;12.73;;;2.60;;
38264;SDS011;24062;47.480;8.768;2022-08-04T00:53:51;13.23;;;2.40;;
38264;SDS011;24062;47.480;8.768;2022-08-04T00:56:32;12.43;;;2.53;;
38264;SDS011;24062;47.480;8.768;2022-08-04T00:59:23;14.10;;;2.80;;
38264;SDS011;24062;47.480;8.768;2022-08-04T01:02:10;11.60;;;2.77;;
38264;SDS011;24062;47.480;8.768;2022-08-04T01:04:48;13.03;;;2.57;;
38264;SDS011;24062;47.480;8.768;2022-08-04T01:07:34;11.83;;;2.90;;
38264;SDS011;24062;47.480;8.768;2022-08-04T01:10:16;11.87;;;2.40;;
38264;SDS011;24062;47.480;8.768;2022-08-04T01:15:52;12.63;;;2.60;;
38264;SDS011;24062;47.480;8.768;2022-08-04T01:18:26;11.13;;;2.77;;
38264;SDS011;24062;47.480;8.768;2022-08-04T01:21:04;10.97;;;2.83;;
38264;SDS011;24062;47.480;8.768;2022-08-04T01:26:42;11.40;;;2.70;;
38264;SDS011;24062;47.480;8.768;2022-08-04T01:29:20;10.77;;;2.50;;
38264;SDS011;24062;47.480;8.768;2022-08-04T01:31:55;13.80;;;3.40;;
38264;SDS011;24062;47.480;8.768;2022-08-04T01:34:30;11.90;;;3.30;;
38264;SDS011;24062;47.480;8.768;2022-08-04T01:37:07;13.33;;;2.63;;
38264;SDS011;24062;47.480;8.768;2022-08-04T01:39:37;10.77;;;2.50;;
38264;SDS011;24062;47.480;8.768;2022-08-04T01:42:13;10.70;;;2.13;;
38264;SDS011;24062;47.480;8.768;2022-08-04T01:44:47;11.80;;;2.50;;
38264;SDS011;24062;47.480;8.768;2022-08-04T01:47:16;12.53;;;2.67;;
38264;SDS011;24062;47.480;8.768;2022-08-04T01:49:45;11.07;;;2.53;;
38264;SDS011;24062;47.480;8.768;2022-08-04T01:52:15;12.37;;;2.83;;
38264;SDS011;24062;47.480;8.768;2022-08-04T01:54:44;13.20;;;3.10;;
38264;SDS011;24062;47.480;8.768;2022-08-04T01:57:12;13.67;;;3.00;;
38264;SDS011;24062;47.480;8.768;2022-08-04T01:59:43;10.97;;;2.70;;
38264;SDS011;24062;47.480;8.768;2022-08-04T02:02:13;14.47;;;2.70;;
38264;SDS011;24062;47.480;8.768;2022-08-04T02:04:41;13.60;;;2.80;;
38264;SDS011;24062;47.480;8.768;2022-08-04T02:07:13;12.20;;;2.80;;
38264;SDS011;24062;47.480;8.768;2022-08-04T02:09:51;12.40;;;3.10;;
38264;SDS011;24062;47.480;8.768;2022-08-04T02:12:26;14.00;;;3.20;;
38264;SDS011;24062;47.480;8.768;2022-08-04T02:15:11;11.30;;;3.10;;
38264;SDS011;24062;47.480;8.768;2022-08-04T02:17:50;12.03;;;2.60;;
38264;SDS011;24062;47.480;8.768;2022-08-04T02:20:22;11.80;;;2.30;;
38264;SDS011;24062;47.480;8.768;2022-08-04T02:22:51;11.30;;;3.00;;
38264;SDS011;24062;47.480;8.768;2022-08-04T02:25:24;10.77;;;2.63;;
38264;SDS011;24062;47.480;8.768;2022-08-04T02:27:56;11.50;;;2.80;;
38264;SDS011;24062;47.480;8.768;2022-08-04T02:30:38;10.90;;;2.53;;
38264;SDS011;24062;47.480;8.768;2022-08-04T02:33:18;11.50;;;2.60;;
38264;SDS011;24062;47.480;8.768;2022-08-04T02:35:50;11.57;;;2.77;;
38264;SDS011;24062;47.480;8.768;2022-08-04T02:38:23;15.50;;;3.20;;
38264;SDS011;24062;47.480;8.768;2022-08-04T02:41:07;11.77;;;2.97;;
38264;SDS011;24062;47.480;8.768;2022-08-04T02:43:36;11.83;;;3.03;;
38264;SDS011;24062;47.480;8.768;2022-08-04T02:46:07;11.40;;;2.80;;
38264;SDS011;24062;47.480;8.768;2022-08-04T02:48:37;11.13;;;2.40;;
38264;SDS011;24062;47.480;8.768;2022-08-04T02:51:08;11.17;;;2.80;;
38264;SDS011;24062;47.480;8.768;2022-08-04T02:53:38;11.43;;;3.10;;
38264;SDS011;24062;47.480;8.768;2022-08-04T02:56:08;12.57;;;3.17;;
38264;SDS011;24062;47.480;8.768;2022-08-04T02:58:36;11.23;;;3.00;;
38264;SDS011;24062;47.480;8.768;2022-08-04T03:01:07;11.10;;;2.97;;
38264;SDS011;24062;47.480;8.768;2022-08-04T03:03:35;13.03;;;2.87;;
38264;SDS011;24062;47.480;8.768;2022-08-04T03:15:53;15.93;;;2.57;;
38264;SDS011;24062;47.480;8.768;2022-08-04T03:18:37;10.83;;;2.77;;
38264;SDS011;24062;47.480;8.768;2022-08-04T03:21:40;11.17;;;2.90;;
38264;SDS011;24062;47.480;8.768;2022-08-04T03:27:53;12.70;;;2.87;;
38264;SDS011;24062;47.480;8.768;2022-08-04T03:30:56;16.10;;;3.40;;
38264;SDS011;24062;47.480;8.768;2022-08-04T03:33:36;11.00;;;2.67;;
38264;SDS011;24062;47.480;8.768;2022-08-04T03:36:21;11.70;;;3.33;;
38264;SDS011;24062;47.480;8.768;2022-08-04T03:39:21;11.60;;;2.87;;
38264;SDS011;24062;47.480;8.768;2022-08-04T03:42:17;11.20;;;3.37;;
38264;SDS011;24062;47.480;8.768;2022-08-04T03:45:24;12.17;;;2.97;;
38264;SDS011;24062;47.480;8.768;2022-08-04T03:51:20;12.43;;;3.33;;
38264;SDS011;24062;47.480;8.768;2022-08-04T03:54:38;11.33;;;2.80;;
38264;SDS011;24062;47.480;8.768;2022-08-04T03:57:32;11.17;;;2.77;;
38264;SDS011;24062;47.480;8.768;2022-08-04T04:00:11;12.03;;;3.50;;
38264;SDS011;24062;47.480;8.768;2022-08-04T04:11:59;14.67;;;2.87;;
38264;SDS011;24062;47.480;8.768;2022-08-04T04:14:53;12.53;;;2.90;;
38264;SDS011;24062;47.480;8.768;2022-08-04T04:17:45;12.00;;;3.10;;
38264;SDS011;24062;47.480;8.768;2022-08-04T04:20:32;12.03;;;2.50;;
38264;SDS011;24062;47.480;8.768;2022-08-04T04:23:18;11.03;;;2.60;;
38264;SDS011;24062;47.480;8.768;2022-08-04T04:25:55;13.10;;;2.90;;
38264;SDS011;24062;47.480;8.768;2022-08-04T04:28:40;11.87;;;3.70;;
38264;SDS011;24062;47.480;8.768;2022-08-04T04:31:27;11.77;;;3.40;;
38264;SDS011;24062;47.480;8.768;2022-08-04T04:34:19;11.37;;;3.07;;
38264;SDS011;24062;47.480;8.768;2022-08-04T04:37:00;10.97;;;2.90;;
38264;SDS011;24062;47.480;8.768;2022-08-04T04:39:48;12.20;;;3.20;;
38264;SDS011;24062;47.480;8.768;2022-08-04T04:42:33;11.53;;;3.00;;
38264;SDS011;24062;47.480;8.768;2022-08-04T04:45:17;12.10;;;2.63;;
38264;SDS011;24062;47.480;8.768;2022-08-04T04:47:53;13.57;;;3.20;;
38264;SDS011;24062;47.480;8.768;2022-08-04T04:50:27;13.17;;;3.00;;
38264;SDS011;24062;47.480;8.768;2022-08-04T04:53:03;10.90;;;2.80;;
38264;SDS011;24062;47.480;8.768;2022-08-04T04:55:41;12.23;;;2.70;;
38264;SDS011;24062;47.480;8.768;2022-08-04T04:58:11;14.00;;;3.30;;
38264;SDS011;24062;47.480;8.768;2022-08-04T05:00:46;14.93;;;3.13;;
38264;SDS011;24062;47.480;8.768;2022-08-04T05:03:29;11.13;;;3.40;;
38264;SDS011;24062;47.480;8.768;2022-08-04T05:06:21;10.43;;;2.80;;
38264;SDS011;24062;47.480;8.768;2022-08-04T05:09:06;12.10;;;3.23;;
38264;SDS011;24062;47.480;8.768;2022-08-04T05:11:50;11.70;;;3.20;;
38264;SDS011;24062;47.480;8.768;2022-08-04T05:14:34;12.83;;;3.17;;
38264;SDS011;24062;47.480;8.768;2022-08-04T05:17:11;10.67;;;2.47;;
38264;SDS011;24062;47.480;8.768;2022-08-04T05:19:54;11.77;;;3.00;;
38264;SDS011;24062;47.480;8.768;2022-08-04T05:22:27;11.00;;;2.70;;
38264;SDS011;24062;47.480;8.768;2022-08-04T05:25:05;11.20;;;2.60;;
38264;SDS011;24062;47.480;8.768;2022-08-04T05:27:39;11.17;;;2.77;;
38264;SDS011;24062;47.480;8.768;2022-08-04T05:30:10;11.73;;;2.50;;
38264;SDS011;24062;47.480;8.768;2022-08-04T05:32:42;11.00;;;2.80;;
38264;SDS011;24062;47.480;8.768;2022-08-04T05:35:14;11.10;;;2.47;;
38264;SDS011;24062;47.480;8.768;2022-08-04T05:37:47;10.77;;;2.63;;
38264;SDS011;24062;47.480;8.768;2022-08-04T05:40:16;11.60;;;2.93;;
38264;SDS011;24062;47.480;8.768;2022-08-04T05:42:46;11.37;;;3.10;;
38264;SDS011;24062;47.480;8.768;2022-08-04T05:45:14;12.37;;;2.93;;
38264;SDS011;24062;47.480;8.768;2022-08-04T05:47:43;10.87;;;2.70;;
38264;SDS011;24062;47.480;8.768;2022-08-04T05:50:11;13.30;;;3.13;;
38264;SDS011;24062;47.480;8.768;2022-08-04T05:52:39;11.97;;;2.77;;
38264;SDS011;24062;47.480;8.768;2022-08-04T05:55:08;13.87;;;3.07;;
38264;SDS011;24062;47.480;8.768;2022-08-04T05:57:37;11.67;;;2.50;;
38264;SDS011;24062;47.480;8.768;2022-08-04T06:00:07;12.37;;;2.80;;
38264;SDS011;24062;47.480;8.768;2022-08-04T06:02:35;13.40;;;3.17;;
38264;SDS011;24062;47.480;8.768;2022-08-04T06:05:04;11.50;;;2.63;;
38264;SDS011;24062;47.480;8.768;2022-08-04T06:07:32;11.03;;;2.47;;
38264;SDS011;24062;47.480;8.768;2022-08-04T06:09:59;12.13;;;2.80;;
38264;SDS011;24062;47.480;8.768;2022-08-04T06:12:28;10.87;;;2.57;;
38264;SDS011;24062;47.480;8.768;2022-08-04T06:14:57;14.30;;;2.20;;
38264;SDS011;24062;47.480;8.768;2022-08-04T06:17:29;18.40;;;3.27;;
38264;SDS011;24062;47.480;8.768;2022-08-04T06:19:59;14.77;;;3.07;;
38264;SDS011;24062;47.480;8.768;2022-08-04T06:22:28;16.30;;;2.67;;
38264;SDS011;24062;47.480;8.768;2022-08-04T06:24:56;10.53;;;2.00;;
38264;SDS011;24062;47.480;8.768;2022-08-04T06:27:26;12.03;;;2.77;;
38264;SDS011;24062;47.480;8.768;2022-08-04T06:29:55;12.37;;;2.83;;
38264;SDS011;24062;47.480;8.768;2022-08-04T06:32:24;11.60;;;2.73;;
38264;SDS011;24062;47.480;8.768;2022-08-04T06:35:03;11.57;;;2.50;;
38264;SDS011;24062;47.480;8.768;2022-08-04T06:37:31;15.90;;;2.20;;
38264;SDS011;24062;47.480;8.768;2022-08-04T06:40:02;10.87;;;1.97;;
38264;SDS011;24062;47.480;8.768;2022-08-04T06:42:30;11.53;;;2.23;;
38264;SDS011;24062;47.480;8.768;2022-08-04T06:44:58;12.10;;;2.67;;
38264;SDS011;24062;47.480;8.768;2022-08-04T06:47:26;11.30;;;2.40;;
38264;SDS011;24062;47.480;8.768;2022-08-04T06:49:55;11.50;;;2.30;;
38264;SDS011;24062;47.480;8.768;2022-08-04T06:52:24;12.07;;;2.40;;
38264;SDS011;24062;47.480;8.768;2022-08-04T06:54:51;11.03;;;2.40;;
38264;SDS011;24062;47.480;8.768;2022-08-04T06:57:21;12.70;;;2.87;;
38264;SDS011;24062;47.480;8.768;2022-08-04T06:59:52;11.97;;;2.73;;
38264;SDS011;24062;47.480;8.768;2022-08-04T07:02:23;11.13;;;2.23;;
38264;SDS011;24062;47.480;8.768;2022-08-04T07:04:52;11.50;;;2.60;;
38264;SDS011;24062;47.480;8.768;2022-08-04T07:07:19;13.37;;;2.90;;
38264;SDS011;24062;47.480;8.768;2022-08-04T07:09:48;13.07;;;3.37;;
38264;SDS011;24062;47.480;8.768;2022-08-04T07:12:15;11.10;;;2.40;;
38264;SDS011;24062;47.480;8.768;2022-08-04T07:14:45;11.83;;;2.73;;
38264;SDS011;24062;47.480;8.768;2022-08-04T07:17:13;13.93;;;3.13;;
38264;SDS011;24062;47.480;8.768;2022-08-04T07:19:41;12.30;;;3.03;;
38264;SDS011;24062;47.480;8.768;2022-08-04T07:22:09;11.20;;;2.70;;
38264;SDS011;24062;47.480;8.768;2022-08-04T07:24:37;15.10;;;3.37;;
38264;SDS011;24062;47.480;8.768;2022-08-04T07:27:07;11.53;;;2.80;;
38264;SDS011;24062;47.480;8.768;2022-08-04T07:29:35;11.13;;;2.47;;
38264;SDS011;24062;47.480;8.768;2022-08-04T07:32:02;16.40;;;3.40;;
38264;SDS011;24062;47.480;8.768;2022-08-04T07:34:30;14.37;;;3.27;;
38264;SDS011;24062;47.480;8.768;2022-08-04T07:36:58;11.83;;;2.93;;
38264;SDS011;24062;47.480;8.768;2022-08-04T07:39:27;12.93;;;3.20;;
38264;SDS011;24062;47.480;8.768;2022-08-04T07:41:56;15.53;;;2.93;;
38264;SDS011;24062;47.480;8.768;2022-08-04T07:44:26;13.37;;;3.20;;
38264;SDS011;24062;47.480;8.768;2022-08-04T07:46:53;13.10;;;3.20;;
38264;SDS011;24062;47.480;8.768;2022-08-04T07:49:20;12.57;;;3.20;;
38264;SDS011;24062;47.480;8.768;2022-08-04T07:51:48;13.07;;;3.07;;
38264;SDS011;24062;47.480;8.768;2022-08-04T07:54:15;13.17;;;3.13;;
38264;SDS011;24062;47.480;8.768;2022-08-04T07:56:43;11.10;;;2.87;;
38264;SDS011;24062;47.480;8.768;2022-08-04T07:59:13;11.90;;;2.60;;
38264;SDS011;24062;47.480;8.768;2022-08-04T08:01:41;11.20;;;2.40;;
38264;SDS011;24062;47.480;8.768;2022-08-04T08:04:09;13.57;;;3.03;;
38264;SDS011;24062;47.480;8.768;2022-08-04T08:06:36;11.47;;;2.30;;
38264;SDS011;24062;47.480;8.768;2022-08-04T08:09:07;15.77;;;3.03;;
38264;SDS011;24062;47.480;8.768;2022-08-04T08:11:35;12.57;;;2.30;;
38264;SDS011;24062;47.480;8.768;2022-08-04T08:14:03;11.00;;;2.63;;
38264;SDS011;24062;47.480;8.768;2022-08-04T08:16:32;16.20;;;2.47;;
38264;SDS011;24062;47.480;8.768;2022-08-04T08:19:01;11.77;;;2.40;;
38264;SDS011;24062;47.480;8.768;2022-08-04T08:21:28;11.60;;;2.67;;
38264;SDS011;24062;47.480;8.768;2022-08-04T08:23:55;13.30;;;3.10;;
38264;SDS011;24062;47.480;8.768;2022-08-04T08:26:22;12.20;;;3.20;;
38264;SDS011;24062;47.480;8.768;2022-08-04T08:28:50;11.63;;;2.67;;
38264;SDS011;24062;47.480;8.768;2022-08-04T08:31:17;11.90;;;2.90;;
38264;SDS011;24062;47.480;8.768;2022-08-04T08:33:44;14.07;;;3.00;;
38264;SDS011;24062;47.480;8.768;2022-08-04T08:36:15;13.25;;;3.08;;
38264;SDS011;24062;47.480;8.768;2022-08-04T08:38:48;11.45;;;2.83;;
38264;SDS011;24062;47.480;8.768;2022-08-04T08:47:55;15.70;;;3.08;;
38264;SDS011;24062;47.480;8.768;2022-08-04T08:50:47;12.77;;;2.75;;
38264;SDS011;24062;47.480;8.768;2022-08-04T08:53:30;15.85;;;2.90;;
38264;SDS011;24062;47.480;8.768;2022-08-04T08:56:25;16.40;;;3.25;;
38264;SDS011;24062;47.480;8.768;2022-08-04T08:59:02;12.47;;;2.80;;
38264;SDS011;24062;47.480;8.768;2022-08-04T09:01:50;11.80;;;2.83;;
38264;SDS011;24062;47.480;8.768;2022-08-04T09:04:40;12.15;;;3.10;;
38264;SDS011;24062;47.480;8.768;2022-08-04T09:07:46;12.00;;;3.10;;
38264;SDS011;24062;47.480;8.768;2022-08-04T09:10:25;12.38;;;2.75;;
38264;SDS011;24062;47.480;8.768;2022-08-04T09:13:00;13.05;;;3.00;;
38264;SDS011;24062;47.480;8.768;2022-08-04T09:15:32;15.77;;;3.40;;
38264;SDS011;24062;47.480;8.768;2022-08-04T09:18:04;15.07;;;3.90;;
38264;SDS011;24062;47.480;8.768;2022-08-04T09:20:38;12.68;;;2.85;;
38264;SDS011;24062;47.480;8.768;2022-08-04T09:23:12;11.80;;;2.30;;
38264;SDS011;24062;47.480;8.768;2022-08-04T09:25:47;13.88;;;3.20;;
38264;SDS011;24062;47.480;8.768;2022-08-04T09:28:19;15.68;;;2.60;;
38264;SDS011;24062;47.480;8.768;2022-08-04T09:30:51;15.13;;;2.83;;
38264;SDS011;24062;47.480;8.768;2022-08-04T09:33:25;13.57;;;2.97;;
38264;SDS011;24062;47.480;8.768;2022-08-04T09:36:02;13.43;;;3.50;;
38264;SDS011;24062;47.480;8.768;2022-08-04T09:38:34;14.65;;;3.20;;
38264;SDS011;24062;47.480;8.768;2022-08-04T09:41:15;12.70;;;2.45;;
38264;SDS011;24062;47.480;8.768;2022-08-04T09:43:56;14.13;;;2.92;;
38264;SDS011;24062;47.480;8.768;2022-08-04T09:46:34;12.10;;;2.70;;
38264;SDS011;24062;47.480;8.768;2022-08-04T09:49:06;12.77;;;2.60;;
38264;SDS011;24062;47.480;8.768;2022-08-04T09:51:47;14.60;;;2.90;;
38264;SDS011;24062;47.480;8.768;2022-08-04T09:54:20;12.07;;;3.10;;
38264;SDS011;24062;47.480;8.768;2022-08-04T09:56:55;14.77;;;2.28;;
38264;SDS011;24062;47.480;8.768;2022-08-04T09:59:32;11.65;;;2.58;;
38264;SDS011;24062;47.480;8.768;2022-08-04T10:02:05;14.80;;;2.17;;
38264;SDS011;24062;47.480;8.768;2022-08-04T10:04:34;15.02;;;2.75;;
38264;SDS011;24062;47.480;8.768;2022-08-04T10:10:14;13.32;;;2.88;;
38264;SDS011;24062;47.480;8.768;2022-08-04T10:12:55;15.00;;;2.40;;
38264;SDS011;24062;47.480;8.768;2022-08-04T10:15:35;13.80;;;2.58;;
38264;SDS011;24062;47.480;8.768;2022-08-04T10:18:14;12.90;;;2.58;;
38264;SDS011;24062;47.480;8.768;2022-08-04T10:20:54;11.93;;;2.30;;
38264;SDS011;24062;47.480;8.768;2022-08-04T10:23:33;12.65;;;2.58;;
38264;SDS011;24062;47.480;8.768;2022-08-04T10:26:09;15.25;;;2.58;;
38264;SDS011;24062;47.480;8.768;2022-08-04T10:28:48;11.45;;;2.45;;
38264;SDS011;24062;47.480;8.768;2022-08-04T10:31:21;12.77;;;2.35;;
38264;SDS011;24062;47.480;8.768;2022-08-04T10:33:53;11.95;;;2.13;;
38264;SDS011;24062;47.480;8.768;2022-08-04T10:36:27;12.63;;;2.10;;
38264;SDS011;24062;47.480;8.768;2022-08-04T10:39:00;13.77;;;2.28;;
38264;SDS011;24062;47.480;8.768;2022-08-04T10:41:33;14.55;;;2.08;;
38264;SDS011;24062;47.480;8.768;2022-08-04T10:44:15;12.40;;;1.92;;
38264;SDS011;24062;47.480;8.768;2022-08-04T10:46:50;12.07;;;1.83;;
38264;SDS011;24062;47.480;8.768;2022-08-04T10:49:21;11.50;;;2.13;;
38264;SDS011;24062;47.480;8.768;2022-08-04T10:51:58;14.88;;;2.28;;
38264;SDS011;24062;47.480;8.768;2022-08-04T10:54:30;12.05;;;2.25;;
38264;SDS011;24062;47.480;8.768;2022-08-04T10:57:09;11.93;;;2.20;;
38264;SDS011;24062;47.480;8.768;2022-08-04T10:59:45;12.93;;;2.10;;
38264;SDS011;24062;47.480;8.768;2022-08-04T11:02:21;12.68;;;1.88;;
38264;SDS011;24062;47.480;8.768;2022-08-04T11:04:57;12.00;;;1.60;;
38264;SDS011;24062;47.480;8.768;2022-08-04T11:07:29;14.68;;;2.30;;
38264;SDS011;24062;47.480;8.768;2022-08-04T11:09:58;10.82;;;1.52;;
38264;SDS011;24062;47.480;8.768;2022-08-04T11:12:26;10.60;;;1.50;;
38264;SDS011;24062;47.480;8.768;2022-08-04T11:14:57;10.88;;;1.70;;
38264;SDS011;24062;47.480;8.768;2022-08-04T11:17:28;12.57;;;1.77;;
38264;SDS011;24062;47.480;8.768;2022-08-04T11:20:01;11.55;;;1.80;;
38264;SDS011;24062;47.480;8.768;2022-08-04T11:22:37;14.27;;;1.42;;
38264;SDS011;24062;47.480;8.768;2022-08-04T11:25:10;11.25;;;1.58;;
38264;SDS011;24062;47.480;8.768;2022-08-04T11:27:53;11.07;;;1.50;;
38264;SDS011;24062;47.480;8.768;2022-08-04T11:30:31;11.60;;;1.30;;
38264;SDS011;24062;47.480;8.768;2022-08-04T11:33:04;11.43;;;1.45;;
38264;SDS011;24062;47.480;8.768;2022-08-04T11:35:37;10.32;;;1.30;;
38264;SDS011;24062;47.480;8.768;2022-08-04T11:38:11;14.18;;;1.77;;
38264;SDS011;24062;47.480;8.768;2022-08-04T11:40:45;13.38;;;1.70;;
38264;SDS011;24062;47.480;8.768;2022-08-04T11:43:18;14.15;;;1.70;;
38264;SDS011;24062;47.480;8.768;2022-08-04T11:45:53;10.98;;;1.70;;
38264;SDS011;24062;47.480;8.768;2022-08-04T11:48:26;12.75;;;1.38;;
38264;SDS011;24062;47.480;8.768;2022-08-04T11:50:57;12.07;;;1.40;;
38264;SDS011;24062;47.480;8.768;2022-08-04T11:53:26;11.40;;;1.40;;
38264;SDS011;24062;47.480;8.768;2022-08-04T11:55:57;11.00;;;1.30;;
38264;SDS011;24062;47.480;8.768;2022-08-04T11:58:27;11.57;;;1.42;;
38264;SDS011;24062;47.480;8.768;2022-08-04T12:00:57;12.25;;;1.42;;
38264;SDS011;24062;47.480;8.768;2022-08-04T12:03:33;10.57;;;1.40;;
38264;SDS011;24062;47.480;8.768;2022-08-04T12:06:09;11.65;;;1.48;;
38264;SDS011;24062;47.480;8.768;2022-08-04T12:08:48;11.10;;;1.38;;
38264;SDS011;24062;47.480;8.768;2022-08-04T12:11:24;11.75;;;1.35;;
38264;SDS011;24062;47.480;8.768;2022-08-04T12:14:03;13.20;;;1.48;;
38264;SDS011;24062;47.480;8.768;2022-08-04T12:16:44;12.15;;;1.65;;
38264;SDS011;24062;47.480;8.768;2022-08-04T12:19:19;10.48;;;1.20;;
38264;SDS011;24062;47.480;8.768;2022-08-04T12:21:52;11.52;;;1.38;;
38264;SDS011;24062;47.480;8.768;2022-08-04T12:24:25;11.88;;;1.27;;
38264;SDS011;24062;47.480;8.768;2022-08-04T12:26:57;13.73;;;1.40;;
38264;SDS011;24062;47.480;8.768;2022-08-04T12:29:39;13.25;;;1.40;;
38264;SDS011;24062;47.480;8.768;2022-08-04T12:32:12;12.98;;;1.50;;
38264;SDS011;24062;47.480;8.768;2022-08-04T12:34:46;11.90;;;1.52;;
38264;SDS011;24062;47.480;8.768;2022-08-04T12:37:22;13.90;;;1.58;;
38264;SDS011;24062;47.480;8.768;2022-08-04T12:40:00;11.82;;;1.40;;
38264;SDS011;24062;47.480;8.768;2022-08-04T12:42:33;12.05;;;1.40;;
38264;SDS011;24062;47.480;8.768;2022-08-04T12:45:06;11.25;;;1.35;;
38264;SDS011;24062;47.480;8.768;2022-08-04T12:47:35;11.32;;;1.60;;
38264;SDS011;24062;47.480;8.768;2022-08-04T12:50:04;10.45;;;1.60;;
38264;SDS011;24062;47.480;8.768;2022-08-04T12:52:39;10.75;;;1.52;;
38264;SDS011;24062;47.480;8.768;2022-08-04T12:55:08;16.25;;;1.30;;
38264;SDS011;24062;47.480;8.768;2022-08-04T12:57:36;10.40;;;1.52;;
38264;SDS011;24062;47.480;8.768;2022-08-04T13:00:06;12.93;;;1.42;;
38264;SDS011;24062;47.480;8.768;2022-08-04T13:02:37;12.45;;;1.60;;
38264;SDS011;24062;47.480;8.768;2022-08-04T13:05:07;10.90;;;1.60;;
38264;SDS011;24062;47.480;8.768;2022-08-04T13:07:37;10.80;;;1.45;;
38264;SDS011;24062;47.480;8.768;2022-08-04T13:10:09;12.55;;;1.75;;
38264;SDS011;24062;47.480;8.768;2022-08-04T13:12:37;11.32;;;1.65;;
38264;SDS011;24062;47.480;8.768;2022-08-04T13:15:08;11.95;;;1.40;;
38264;SDS011;24062;47.480;8.768;2022-08-04T13:17:46;10.15;;;1.50;;
38264;SDS011;24062;47.480;8.768;2022-08-04T13:20:17;11.27;;;1.60;;
38264;SDS011;24062;47.480;8.768;2022-08-04T13:22:50;12.43;;;1.65;;
38264;SDS011;24062;47.480;8.768;2022-08-04T13:25:25;13.10;;;1.88;;
38264;SDS011;24062;47.480;8.768;2022-08-04T13:27:53;10.50;;;1.58;;
38264;SDS011;24062;47.480;8.768;2022-08-04T13:30:21;10.10;;;1.55;;
38264;SDS011;24062;47.480;8.768;2022-08-04T13:32:52;11.95;;;1.40;;
38264;SDS011;24062;47.480;8.768;2022-08-04T13:35:22;9.57;;;1.70;;
38264;SDS011;24062;47.480;8.768;2022-08-04T13:37:51;10.05;;;1.80;;
38264;SDS011;24062;47.480;8.768;2022-08-04T13:40:20;9.90;;;1.80;;
38264;SDS011;24062;47.480;8.768;2022-08-04T13:42:49;12.93;;;1.70;;
38264;SDS011;24062;47.480;8.768;2022-08-04T13:45:18;9.80;;;1.50;;
38264;SDS011;24062;47.480;8.768;2022-08-04T13:47:46;10.90;;;1.48;;
38264;SDS011;24062;47.480;8.768;2022-08-04T13:50:18;9.70;;;1.50;;
38264;SDS011;24062;47.480;8.768;2022-08-04T13:52:50;10.00;;;1.88;;
38264;SDS011;24062;47.480;8.768;2022-08-04T13:55:21;12.43;;;1.70;;
38264;SDS011;24062;47.480;8.768;2022-08-04T13:57:54;9.63;;;1.60;;
38264;SDS011;24062;47.480;8.768;2022-08-04T14:00:36;12.00;;;1.95;;
38264;SDS011;24062;47.480;8.768;2022-08-04T14:03:08;11.30;;;1.73;;
38264;SDS011;24062;47.480;8.768;2022-08-04T14:05:40;9.48;;;1.80;;
38264;SDS011;24062;47.480;8.768;2022-08-04T14:08:11;10.73;;;1.98;;
38264;SDS011;24062;47.480;8.768;2022-08-04T14:10:52;10.00;;;2.10;;
38264;SDS011;24062;47.480;8.768;2022-08-04T14:13:27;10.60;;;2.20;;
38264;SDS011;24062;47.480;8.768;2022-08-04T14:15:55;9.80;;;1.90;;
38264;SDS011;24062;47.480;8.768;2022-08-04T14:18:23;9.70;;;1.90;;
38264;SDS011;24062;47.480;8.768;2022-08-04T14:21:00;13.60;;;2.10;;
38264;SDS011;24062;47.480;8.768;2022-08-04T14:26:21;10.02;;;2.28;;
38264;SDS011;24062;47.480;8.768;2022-08-04T14:28:53;14.63;;;2.17;;
38264;SDS011;24062;47.480;8.768;2022-08-04T14:31:23;9.25;;;1.85;;
38264;SDS011;24062;47.480;8.768;2022-08-04T14:33:51;11.13;;;2.10;;
38264;SDS011;24062;47.480;8.768;2022-08-04T14:36:20;8.98;;;1.80;;
38264;SDS011;24062;47.480;8.768;2022-08-04T14:38:48;11.23;;;1.70;;
38264;SDS011;24062;47.480;8.768;2022-08-04T14:41:19;9.27;;;2.08;;
38264;SDS011;24062;47.480;8.768;2022-08-04T14:43:48;10.35;;;1.80;;
38264;SDS011;24062;47.480;8.768;2022-08-04T14:46:16;13.77;;;2.10;;
38264;SDS011;24062;47.480;8.768;2022-08-04T14:48:59;10.07;;;2.20;;
38264;SDS011;24062;47.480;8.768;2022-08-04T14:51:33;12.18;;;2.10;;
38264;SDS011;24062;47.480;8.768;2022-08-04T14:54:02;9.52;;;2.20;;
38264;SDS011;24062;47.480;8.768;2022-08-04T14:56:30;9.90;;;2.15;;
38264;SDS011;24062;47.480;8.768;2022-08-04T14:58:58;10.25;;;2.10;;
38264;SDS011;24062;47.480;8.768;2022-08-04T15:01:26;10.43;;;2.13;;
38264;SDS011;24062;47.480;8.768;2022-08-04T15:03:54;11.82;;;2.17;;
38264;SDS011;24062;47.480;8.768;2022-08-04T15:06:23;10.30;;;1.70;;
38264;SDS011;24062;47.480;8.768;2022-08-04T15:08:53;11.73;;;2.00;;
38264;SDS011;24062;47.480;8.768;2022-08-04T15:11:21;13.32;;;2.03;;
38264;SDS011;24062;47.480;8.768;2022-08-04T15:13:49;9.30;;;1.90;;
38264;SDS011;24062;47.480;8.768;2022-08-04T15:16:16;9.65;;;1.90;;
38264;SDS011;24062;47.480;8.768;2022-08-04T15:18:44;11.10;;;2.30;;
38264;SDS011;24062;47.480;8.768;2022-08-04T15:21:11;10.82;;;2.20;;
38264;SDS011;24062;47.480;8.768;2022-08-04T15:23:40;11.05;;;1.90;;
38264;SDS011;24062;47.480;8.768;2022-08-04T15:26:11;11.15;;;2.28;;
38264;SDS011;24062;47.480;8.768;2022-08-04T15:28:41;9.90;;;2.50;;
38264;SDS011;24062;47.480;8.768;2022-08-04T15:31:13;9.40;;;2.00;;
38264;SDS011;24062;47.480;8.768;2022-08-04T15:33:42;11.55;;;2.20;;
38264;SDS011;24062;47.480;8.768;2022-08-04T15:36:11;9.68;;;1.90;;
38264;SDS011;24062;47.480;8.768;2022-08-04T15:38:42;10.10;;;2.08;;
38264;SDS011;24062;47.480;8.768;2022-08-04T15:41:29;10.35;;;2.20;;
38264;SDS011;24062;47.480;8.768;2022-08-04T15:44:20;10.02;;;2.10;;
38264;SDS011;24062;47.480;8.768;2022-08-04T15:47:09;13.77;;;2.30;;
38264;SDS011;24062;47.480;8.768;2022-08-04T15:49:40;10.52;;;2.00;;
38264;SDS011;24062;47.480;8.768;2022-08-04T15:52:09;11.02;;;2.00;;
38264;SDS011;24062;47.480;8.768;2022-08-04T15:54:37;10.35;;;2.38;;
38264;SDS011;24062;47.480;8.768;2022-08-04T15:57:06;10.27;;;2.28;;
38264;SDS011;24062;47.480;8.768;2022-08-04T16:02:35;9.52;;;2.03;;
38264;SDS011;24062;47.480;8.768;2022-08-04T16:08:15;12.18;;;2.05;;